createdAt,value
2022-08-28T00:00:38.868Z,14.80
2022-08-28T00:03:07.407Z,12.73
2022-08-28T00:05:36.176Z,20.27
2022-08-28T00:08:04.888Z,17.87
2022-08-28T00:10:34.571Z,11.93
2022-08-28T00:13:03.406Z,12.80
2022-08-28T00:15:34.868Z,13.43
2022-08-28T00:18:04.027Z,12.50
2022-08-28T00:20:33.393Z,11.67
2022-08-28T00:23:01.860Z,10.83
2022-08-28T00:25:31.591Z,13.33
2022-08-28T00:28:05.207Z,13.73
2022-08-28T00:30:35.871Z,14.50
2022-08-28T00:33:06.705Z,10.60
2022-08-28T00:35:36.290Z,11.00
2022-08-28T00:38:06.046Z,12.53
2022-08-28T00:40:35.556Z,15.03
2022-08-28T00:43:07.831Z,11.03
2022-08-28T00:45:39.866Z,10.73
2022-08-28T00:48:08.644Z,16.83
2022-08-28T00:50:51.936Z,14.13
2022-08-28T00:53:23.455Z,11.93
2022-08-28T00:55:53.613Z,12.10
2022-08-28T00:58:23.221Z,10.83
2022-08-28T01:00:51.637Z,10.50
2022-08-28T01:03:19.746Z,12.20
2022-08-28T01:05:53.460Z,10.40
2022-08-28T01:08:21.692Z,10.07
2022-08-28T01:10:55.273Z,9.47
2022-08-28T01:13:26.836Z,10.43
2022-08-28T01:15:56.138Z,13.63
2022-08-28T01:18:24.688Z,8.57
2022-08-28T01:20:59.179Z,8.83
2022-08-28T01:23:44.729Z,9.20
2022-08-28T01:26:13.268Z,11.57
2022-08-28T01:28:42.036Z,11.93
2022-08-28T01:31:11.978Z,12.77
2022-08-28T01:33:42.592Z,9.53
2022-08-28T01:36:12.589Z,14.23
2022-08-28T01:38:42.321Z,9.37
2022-08-28T01:41:13.905Z,13.03
2022-08-28T01:43:42.872Z,10.00
2022-08-28T01:46:12.295Z,17.10
2022-08-28T01:48:43.295Z,13.57
2022-08-28T01:51:12.456Z,11.67
2022-08-28T01:53:41.701Z,11.23
2022-08-28T01:56:16.754Z,11.00
2022-08-28T01:58:45.078Z,10.97
2022-08-28T02:01:14.564Z,8.97
2022-08-28T02:03:43.856Z,9.00
2022-08-28T02:06:14.528Z,12.40
2022-08-28T02:08:42.652Z,9.63
2022-08-28T02:11:11.002Z,8.07
2022-08-28T02:13:41.224Z,11.70
2022-08-28T02:16:11.529Z,10.00
2022-08-28T02:18:39.933Z,8.53
2022-08-28T02:21:09.240Z,9.53
2022-08-28T02:23:39.419Z,10.73
2022-08-28T02:26:07.887Z,16.73
2022-08-28T02:28:36.463Z,12.00
2022-08-28T02:31:08.420Z,8.80
2022-08-28T02:33:38.324Z,16.47
2022-08-28T02:36:08.519Z,8.27
2022-08-28T02:38:36.875Z,10.47
2022-08-28T02:41:05.826Z,8.90
2022-08-28T02:43:34.105Z,12.53
2022-08-28T02:46:02.382Z,7.73
2022-08-28T02:48:33.218Z,10.90
2022-08-28T02:51:02.890Z,8.87
2022-08-28T02:53:31.723Z,9.10
2022-08-28T02:56:02.969Z,9.20
2022-08-28T02:58:32.226Z,8.30
2022-08-28T03:01:01.806Z,7.47
2022-08-28T03:03:32.517Z,10.93
2022-08-28T03:06:01.324Z,17.83
2022-08-28T03:08:30.168Z,8.10
2022-08-28T03:10:58.343Z,9.23
2022-08-28T03:13:27.518Z,14.23
2022-08-28T03:15:56.294Z,11.43
2022-08-28T03:18:25.630Z,13.20
2022-08-28T03:20:56.631Z,12.93
2022-08-28T03:23:26.643Z,12.63
2022-08-28T03:25:55.661Z,12.73
2022-08-28T03:28:23.851Z,8.77
2022-08-28T03:30:52.124Z,8.73
2022-08-28T03:33:20.324Z,10.77
2022-08-28T03:35:48.889Z,10.50
2022-08-28T03:38:19.197Z,10.07
2022-08-28T03:40:48.417Z,9.43
2022-08-28T03:43:19.187Z,11.23
2022-08-28T03:45:56.580Z,14.23
2022-08-28T03:48:25.125Z,9.27
2022-08-28T03:50:54.313Z,9.67
2022-08-28T03:53:26.282Z,11.73
2022-08-28T03:55:54.705Z,14.07
2022-08-28T03:58:23.691Z,11.40
2022-08-28T04:00:52.052Z,10.47
2022-08-28T04:03:20.537Z,11.90
2022-08-28T04:05:49.058Z,12.07
2022-08-28T04:08:19.978Z,10.73
2022-08-28T04:10:49.662Z,11.47
2022-08-28T04:13:19.678Z,10.80
2022-08-28T04:15:57.017Z,10.33
2022-08-28T04:18:25.195Z,16.27
2022-08-28T04:20:59.941Z,15.60
2022-08-28T04:23:28.194Z,10.87
2022-08-28T04:25:57.705Z,13.47
2022-08-28T04:28:26.955Z,9.23
2022-08-28T04:30:56.660Z,13.13
2022-08-28T04:33:25.994Z,11.50
2022-08-28T04:35:54.717Z,11.97
2022-08-28T04:38:23.616Z,14.63
2022-08-28T04:40:51.789Z,11.47
2022-08-28T04:43:21.236Z,13.23
2022-08-28T04:45:49.483Z,10.00
2022-08-28T04:48:17.829Z,11.43
2022-08-28T04:50:47.880Z,10.93
2022-08-28T04:53:18.177Z,10.67
2022-08-28T04:55:54.375Z,11.10
2022-08-28T04:58:24.564Z,9.10
2022-08-28T05:00:54.583Z,9.03
2022-08-28T05:03:23.255Z,13.20
2022-08-28T05:05:53.279Z,10.30
2022-08-28T05:08:26.947Z,12.10
2022-08-28T05:10:56.068Z,8.97
2022-08-28T05:13:28.168Z,12.90
2022-08-28T05:15:56.370Z,12.97
2022-08-28T05:18:25.522Z,11.73
2022-08-28T05:20:53.899Z,10.63
2022-08-28T05:23:25.773Z,9.90
2022-08-28T05:25:55.270Z,13.47
2022-08-28T05:28:25.250Z,11.53
2022-08-28T05:30:54.834Z,16.30
2022-08-28T05:33:23.298Z,10.50
2022-08-28T05:35:51.443Z,9.50
2022-08-28T05:38:20.337Z,12.30
2022-08-28T05:40:49.939Z,12.50
2022-08-28T05:43:19.147Z,11.87
2022-08-28T05:45:47.293Z,15.33
2022-08-28T05:48:16.767Z,16.13
2022-08-28T05:50:47.685Z,15.20
2022-08-28T05:53:17.561Z,13.13
2022-08-28T05:55:51.684Z,14.70
2022-08-28T05:58:34.635Z,17.10
2022-08-28T06:01:11.436Z,19.13
2022-08-28T06:03:42.627Z,19.17
2022-08-28T06:06:12.762Z,15.77
2022-08-28T06:08:56.414Z,18.17
2022-08-28T06:11:30.597Z,17.03
2022-08-28T06:14:01.557Z,19.37
2022-08-28T06:16:30.943Z,21.67
2022-08-28T06:19:00.941Z,18.23
2022-08-28T06:21:29.252Z,17.00
2022-08-28T06:23:57.944Z,18.40
2022-08-28T06:26:26.290Z,19.50
2022-08-28T06:28:55.072Z,16.67
2022-08-28T06:31:26.454Z,24.60
2022-08-28T06:33:56.304Z,20.40
2022-08-28T06:36:27.327Z,24.97
2022-08-28T06:38:58.106Z,23.30
2022-08-28T06:41:27.342Z,28.10
2022-08-28T06:43:55.856Z,31.60
2022-08-28T06:46:25.067Z,27.50
2022-08-28T06:48:53.372Z,33.43
2022-08-28T06:51:24.898Z,37.23
2022-08-28T06:53:54.675Z,39.00
2022-08-28T06:56:26.067Z,51.03
2022-08-28T06:58:57.373Z,51.80
2022-08-28T07:01:29.125Z,44.17
2022-08-28T07:04:00.166Z,47.80
2022-08-28T07:06:31.974Z,36.20
2022-08-28T07:09:01.700Z,38.23
2022-08-28T07:11:32.452Z,45.20
2022-08-28T07:14:01.529Z,45.80
2022-08-28T07:16:32.635Z,48.33
2022-08-28T07:19:03.706Z,51.37
2022-08-28T07:21:32.679Z,56.90
2022-08-28T07:24:06.985Z,50.20
2022-08-28T07:26:35.749Z,41.77
2022-08-28T07:29:09.852Z,44.13
2022-08-28T07:31:41.295Z,51.40
2022-08-28T07:34:10.757Z,47.00
2022-08-28T07:36:39.573Z,47.90
2022-08-28T07:39:10.583Z,51.07
2022-08-28T07:41:42.518Z,45.77
2022-08-28T07:44:32.292Z,48.90
2022-08-28T07:47:04.055Z,51.90
2022-08-28T07:49:33.705Z,49.10
2022-08-28T07:52:02.002Z,45.60
2022-08-28T07:54:31.573Z,46.03
2022-08-28T07:56:59.708Z,55.73
2022-08-28T07:59:31.635Z,43.73
2022-08-28T08:02:03.462Z,49.50
2022-08-28T08:04:31.856Z,41.03
2022-08-28T08:06:59.945Z,39.33
2022-08-28T08:09:28.673Z,34.53
2022-08-28T08:11:58.740Z,44.10
2022-08-28T08:14:27.126Z,46.47
2022-08-28T08:16:55.371Z,40.97
2022-08-28T08:19:23.595Z,44.57
2022-08-28T08:21:55.264Z,44.87
2022-08-28T08:24:26.384Z,48.77
2022-08-28T08:27:00.785Z,39.83
2022-08-28T08:29:32.351Z,42.13
2022-08-28T08:32:06.940Z,39.97
2022-08-28T08:34:38.623Z,35.40
2022-08-28T08:37:07.201Z,38.23
2022-08-28T08:39:36.745Z,41.63
2022-08-28T08:42:11.291Z,35.00
2022-08-28T08:44:42.329Z,37.60
2022-08-28T08:47:17.124Z,33.37
2022-08-28T08:49:52.351Z,40.80
2022-08-28T08:52:36.060Z,35.00
2022-08-28T08:55:24.355Z,37.03
2022-08-28T08:58:00.177Z,35.53
2022-08-28T09:00:29.429Z,36.53
2022-08-28T09:03:05.872Z,36.63
2022-08-28T09:05:43.921Z,29.00
2022-08-28T09:08:22.844Z,32.80
2022-08-28T09:11:04.695Z,26.93
2022-08-28T09:13:45.619Z,26.73
2022-08-28T09:16:27.524Z,25.87
2022-08-28T09:18:58.023Z,25.30
2022-08-28T09:21:29.593Z,22.80
2022-08-28T09:24:01.292Z,25.70
2022-08-28T09:26:34.210Z,21.60
2022-08-28T09:29:06.900Z,18.53
2022-08-28T09:31:37.480Z,19.37
2022-08-28T09:34:22.821Z,18.90
2022-08-28T09:36:51.687Z,13.83
2022-08-28T09:39:22.083Z,17.67
2022-08-28T09:42:15.880Z,14.67
2022-08-28T09:45:02.072Z,15.70
2022-08-28T09:47:49.671Z,12.40
2022-08-28T09:50:31.551Z,15.00
2022-08-28T09:53:14.020Z,11.00
2022-08-28T09:55:51.780Z,8.73
2022-08-28T09:58:22.640Z,13.50
2022-08-28T10:00:58.124Z,9.17
2022-08-28T10:03:31.256Z,11.30
2022-08-28T10:06:07.861Z,12.73
2022-08-28T10:08:50.568Z,10.37
2022-08-28T10:11:26.435Z,13.40
2022-08-28T10:14:07.983Z,10.50
2022-08-28T10:16:48.235Z,10.37
2022-08-28T10:19:29.450Z,12.13
2022-08-28T10:22:09.547Z,13.07
2022-08-28T10:24:58.460Z,8.33
2022-08-28T10:27:45.340Z,10.90
2022-08-28T10:30:17.587Z,8.03
2022-08-28T10:33:18.196Z,9.50
2022-08-28T10:35:54.664Z,7.80
2022-08-28T10:38:31.598Z,10.00
2022-08-28T10:41:04.235Z,7.70
2022-08-28T10:43:37.158Z,7.37
2022-08-28T10:46:11.006Z,8.47
2022-08-28T10:48:46.286Z,7.90
2022-08-28T10:51:34.934Z,7.63
2022-08-28T10:54:08.798Z,7.80
2022-08-28T10:56:41.282Z,8.17
2022-08-28T10:59:09.360Z,8.17
2022-08-28T11:01:41.127Z,5.40
2022-08-28T11:04:23.448Z,7.80
2022-08-28T11:06:58.347Z,7.90
2022-08-28T11:09:34.396Z,8.87
2022-08-28T11:12:06.964Z,9.93
2022-08-28T11:14:47.606Z,7.13
2022-08-28T11:17:39.893Z,7.23
2022-08-28T11:20:16.563Z,7.10
2022-08-28T11:22:50.719Z,7.50
2022-08-28T11:25:26.705Z,7.10
2022-08-28T11:28:19.476Z,9.37
2022-08-28T11:30:49.665Z,8.00
2022-08-28T11:33:40.193Z,7.50
2022-08-28T11:36:12.835Z,7.77
2022-08-28T11:39:07.536Z,9.43
2022-08-28T11:41:38.593Z,6.37
2022-08-28T11:44:41.265Z,7.57
2022-08-28T11:47:35.756Z,8.23
2022-08-28T11:50:13.261Z,7.73
2022-08-28T11:53:01.004Z,7.60
2022-08-28T11:55:45.893Z,8.93
2022-08-28T11:58:22.712Z,9.20
2022-08-28T12:00:56.198Z,9.40
2022-08-28T12:03:29.816Z,7.70
2022-08-28T12:05:59.368Z,6.70
2022-08-28T12:09:10.281Z,7.40
2022-08-28T12:11:58.140Z,8.77
2022-08-28T12:15:07.574Z,7.13
2022-08-28T12:17:50.271Z,9.23
2022-08-28T12:20:34.850Z,7.07
2022-08-28T12:23:06.477Z,6.17
2022-08-28T12:25:39.282Z,7.00
2022-08-28T12:28:20.730Z,6.60
2022-08-28T12:30:58.292Z,6.73
2022-08-28T12:33:34.679Z,6.97
2022-08-28T12:36:05.687Z,7.07
2022-08-28T12:38:35.427Z,8.20
2022-08-28T12:41:04.441Z,7.33
2022-08-28T12:43:40.929Z,10.80
2022-08-28T12:46:19.493Z,6.20
2022-08-28T12:48:53.620Z,6.53
2022-08-28T12:51:23.535Z,6.20
2022-08-28T12:53:54.014Z,6.80
2022-08-28T12:56:23.637Z,7.40
2022-08-28T12:58:53.690Z,8.20
2022-08-28T13:01:29.192Z,7.33
2022-08-28T13:04:01.099Z,7.17
2022-08-28T13:06:31.503Z,6.87
2022-08-28T13:09:02.420Z,9.37
2022-08-28T13:11:34.852Z,6.90
2022-08-28T13:14:05.229Z,7.63
2022-08-28T13:16:40.803Z,9.10
2022-08-28T13:19:22.791Z,8.17
2022-08-28T13:22:00.441Z,7.00
2022-08-28T13:24:46.785Z,6.90
2022-08-28T13:27:24.459Z,7.53
2022-08-28T13:30:02.787Z,7.30
2022-08-28T13:32:31.778Z,7.83
2022-08-28T13:35:29.456Z,10.70
2022-08-28T13:38:00.048Z,6.90
2022-08-28T13:40:56.510Z,8.10
2022-08-28T13:43:19.413Z,6.67
2022-08-28T13:45:50.937Z,6.50
2022-08-28T13:48:21.232Z,9.80
2022-08-28T13:50:52.442Z,10.43
2022-08-28T13:53:22.433Z,6.50
2022-08-28T13:55:51.820Z,9.53
2022-08-28T13:58:20.535Z,7.70
2022-08-28T14:00:51.820Z,8.07
2022-08-28T14:03:38.781Z,7.57
2022-08-28T14:06:09.280Z,6.50
2022-08-28T14:08:37.423Z,9.93
2022-08-28T14:11:07.257Z,9.07
2022-08-28T14:13:35.940Z,6.47
2022-08-28T14:16:08.728Z,10.70
2022-08-28T14:18:37.021Z,7.63
2022-08-28T14:21:07.252Z,8.93
2022-08-28T14:23:35.841Z,8.60
2022-08-28T14:26:06.081Z,10.17
2022-08-28T14:28:34.182Z,10.67
2022-08-28T14:31:02.311Z,7.63
2022-08-28T14:33:32.406Z,6.23
2022-08-28T14:36:05.613Z,7.70
2022-08-28T14:38:33.792Z,7.23
2022-08-28T14:41:02.898Z,5.93
2022-08-28T14:43:31.618Z,6.07
2022-08-28T14:46:00.528Z,9.47
2022-08-28T14:48:29.291Z,8.47
2022-08-28T14:50:59.095Z,12.10
2022-08-28T14:53:27.213Z,8.13
2022-08-28T14:55:55.328Z,7.37
2022-08-28T14:58:23.546Z,18.20
2022-08-28T15:00:53.005Z,7.00
2022-08-28T15:03:22.424Z,8.67
2022-08-28T15:06:02.556Z,11.83
2022-08-28T15:08:31.354Z,5.50
2022-08-28T15:10:59.549Z,6.23
2022-08-28T15:13:31.519Z,5.60
2022-08-28T15:16:03.930Z,6.20
2022-08-28T15:18:32.216Z,5.33
2022-08-28T15:21:00.512Z,4.43
2022-08-28T15:23:30.713Z,8.10
2022-08-28T15:26:00.126Z,6.47
2022-08-28T15:28:28.247Z,6.77
2022-08-28T15:30:56.329Z,6.27
2022-08-28T15:33:24.482Z,8.60
2022-08-28T15:35:56.570Z,5.03
2022-08-28T15:38:24.947Z,9.07
2022-08-28T15:41:11.995Z,6.20
2022-08-28T15:43:40.096Z,4.43
2022-08-28T15:46:15.878Z,4.97
2022-08-28T15:48:44.119Z,4.07
2022-08-28T15:51:12.324Z,5.43
2022-08-28T15:53:40.400Z,5.20
2022-08-28T15:56:10.264Z,6.30
2022-08-28T15:58:39.639Z,11.03
2022-08-28T16:01:08.406Z,3.77
2022-08-28T16:03:37.143Z,7.80
2022-08-28T16:06:11.921Z,3.47
2022-08-28T16:08:40.793Z,7.43
2022-08-28T16:11:11.792Z,4.23
2022-08-28T16:13:40.601Z,4.57
2022-08-28T16:16:08.997Z,4.20
2022-08-28T16:18:37.193Z,8.67
2022-08-28T16:21:05.896Z,3.70
2022-08-28T16:23:34.800Z,6.03
2022-08-28T16:26:03.920Z,4.37
2022-08-28T16:28:34.924Z,6.13
2022-08-28T16:31:08.139Z,4.50
2022-08-28T16:33:47.497Z,5.03
2022-08-28T16:36:16.894Z,4.20
2022-08-28T16:38:46.595Z,3.20
2022-08-28T16:41:16.738Z,4.73
2022-08-28T16:43:47.211Z,4.90
2022-08-28T16:46:18.583Z,9.23
2022-08-28T16:48:47.324Z,6.80
2022-08-28T16:51:16.886Z,4.27
2022-08-28T16:53:45.043Z,3.80
2022-08-28T16:56:14.892Z,3.80
2022-08-28T16:58:46.043Z,5.07
2022-08-28T17:01:14.693Z,4.03
2022-08-28T17:03:44.133Z,9.00
2022-08-28T17:06:15.070Z,4.80
2022-08-28T17:08:43.906Z,4.43
2022-08-28T17:11:12.275Z,4.30
2022-08-28T17:13:40.774Z,5.40
2022-08-28T17:16:11.128Z,3.07
2022-08-28T17:18:40.757Z,9.43
2022-08-28T17:21:34.392Z,4.50
2022-08-28T17:24:02.873Z,3.70
2022-08-28T17:26:31.046Z,7.13
2022-08-28T17:28:59.323Z,7.20
2022-08-28T17:31:29.001Z,5.63
2022-08-28T17:33:57.111Z,2.80
2022-08-28T17:36:33.558Z,4.27
2022-08-28T17:39:03.252Z,3.60
2022-08-28T17:41:31.594Z,3.23
2022-08-28T17:44:01.339Z,4.47
2022-08-28T17:46:35.396Z,2.63
2022-08-28T17:49:07.187Z,3.50
2022-08-28T17:51:42.892Z,4.87
2022-08-28T17:54:12.961Z,3.70
2022-08-28T17:56:41.348Z,3.93
2022-08-28T17:59:10.041Z,5.90
2022-08-28T18:01:40.097Z,3.03
2022-08-28T18:04:08.964Z,4.10
2022-08-28T18:06:37.863Z,7.13
2022-08-28T18:09:06.974Z,3.50
2022-08-28T18:11:35.120Z,2.67
2022-08-28T18:14:03.268Z,3.90
2022-08-28T18:16:33.373Z,4.33
2022-08-28T18:19:04.635Z,4.43
2022-08-28T18:21:32.868Z,3.70
2022-08-28T18:24:01.213Z,7.70
2022-08-28T18:26:29.416Z,7.50
2022-08-28T18:28:57.700Z,5.63
2022-08-28T18:31:26.564Z,6.30
2022-08-28T18:33:55.268Z,3.33
2022-08-28T18:36:24.780Z,5.40
2022-08-28T18:38:53.769Z,2.83
2022-08-28T18:41:28.640Z,3.97
2022-08-28T18:44:10.815Z,4.60
2022-08-28T18:46:39.001Z,3.50
2022-08-28T18:49:07.187Z,5.13
2022-08-28T18:51:37.072Z,4.20
2022-08-28T18:54:05.498Z,6.10
2022-08-28T18:56:36.063Z,4.33
2022-08-28T18:59:06.772Z,4.50
2022-08-28T19:01:35.157Z,4.50
2022-08-28T19:04:03.774Z,3.40
2022-08-28T19:06:32.185Z,3.73
2022-08-28T19:09:01.741Z,5.60
2022-08-28T19:11:31.408Z,4.43
2022-08-28T19:13:59.671Z,5.43
2022-08-28T19:16:33.122Z,3.80
2022-08-28T19:19:02.176Z,3.90
2022-08-28T19:21:30.612Z,6.03
2022-08-28T19:23:58.832Z,5.50
2022-08-28T19:26:29.345Z,6.03
2022-08-28T19:28:58.096Z,4.70
2022-08-28T19:31:27.539Z,3.20
2022-08-28T19:33:58.227Z,5.30
2022-08-28T19:36:27.380Z,2.97
2022-08-28T19:38:55.595Z,6.00
2022-08-28T19:41:24.154Z,9.40
2022-08-28T19:43:53.627Z,12.60
2022-08-28T19:46:21.830Z,3.30
2022-08-28T19:48:50.422Z,10.10
2022-08-28T19:51:23.514Z,3.93
2022-08-28T19:53:57.953Z,3.77
2022-08-28T19:56:28.394Z,4.23
2022-08-28T19:58:59.456Z,4.77
2022-08-28T20:01:29.882Z,3.20
2022-08-28T20:03:58.862Z,5.30
2022-08-28T20:06:27.651Z,2.93
2022-08-28T20:08:55.946Z,5.30
2022-08-28T20:11:30.271Z,4.37
2022-08-28T20:14:04.242Z,3.27
2022-08-28T20:16:35.155Z,5.87
2022-08-28T20:19:03.983Z,2.90
2022-08-28T20:21:37.117Z,3.43
2022-08-28T20:24:07.313Z,7.30
2022-08-28T20:26:35.629Z,7.33
2022-08-28T20:29:06.380Z,3.43
2022-08-28T20:31:35.037Z,3.90
2022-08-28T20:34:03.158Z,5.40
2022-08-28T20:36:31.273Z,5.90
2022-08-28T20:39:00.053Z,4.70
2022-08-28T20:41:28.440Z,3.87
2022-08-28T20:43:56.975Z,6.13
2022-08-28T20:46:26.600Z,5.17
2022-08-28T20:48:54.885Z,4.63
2022-08-28T20:51:43.015Z,4.13
2022-08-28T20:54:11.784Z,5.13
2022-08-28T20:56:40.013Z,6.53
2022-08-28T20:59:08.702Z,4.73
2022-08-28T21:01:38.268Z,9.43
2022-08-28T21:04:06.826Z,11.83
2022-08-28T21:06:35.203Z,7.73
2022-08-28T21:09:03.355Z,8.30
2022-08-28T21:11:31.523Z,3.53
2022-08-28T21:13:59.604Z,9.17
2022-08-28T21:16:27.835Z,3.70
2022-08-28T21:19:15.111Z,6.90
2022-08-28T21:21:45.334Z,6.67
2022-08-28T21:24:15.891Z,4.80
2022-08-28T21:26:44.988Z,4.33
2022-08-28T21:29:15.110Z,6.57
2022-08-28T21:31:44.663Z,5.80
2022-08-28T21:34:14.264Z,9.13
2022-08-28T21:36:49.522Z,5.07
2022-08-28T21:39:20.643Z,4.60
2022-08-28T21:41:49.587Z,5.07
2022-08-28T21:44:18.432Z,6.63
2022-08-28T21:46:46.760Z,4.67
2022-08-28T21:49:16.260Z,7.03
2022-08-28T21:51:44.403Z,4.97
2022-08-28T21:54:12.619Z,9.20
2022-08-28T21:56:41.065Z,4.10
2022-08-28T21:59:09.233Z,5.77
2022-08-28T22:01:37.435Z,6.07
2022-08-28T22:04:06.300Z,3.53
2022-08-28T22:06:35.856Z,3.30
2022-08-28T22:09:06.098Z,4.70
2022-08-28T22:11:34.683Z,4.37
2022-08-28T22:14:02.810Z,4.30
2022-08-28T22:16:31.563Z,4.50
2022-08-28T22:18:59.800Z,12.50
2022-08-28T22:21:45.725Z,4.63
2022-08-28T22:24:16.408Z,4.33
2022-08-28T22:26:45.121Z,5.30
2022-08-28T22:29:13.472Z,3.67
2022-08-28T22:31:45.821Z,4.40
2022-08-28T22:34:14.772Z,3.93
2022-08-28T22:36:42.971Z,5.67
2022-08-28T22:39:11.211Z,3.77
2022-08-28T22:41:40.790Z,4.63
2022-08-28T22:44:09.128Z,4.17
2022-08-28T22:46:37.339Z,5.10
2022-08-28T22:49:05.974Z,3.30
2022-08-28T22:51:35.489Z,9.67
2022-08-28T22:54:03.750Z,9.50
2022-08-28T22:56:31.921Z,5.50
2022-08-28T22:59:01.478Z,3.67
2022-08-28T23:01:30.160Z,4.80
2022-08-28T23:04:01.338Z,5.97
2022-08-28T23:06:30.323Z,6.20
2022-08-28T23:08:58.963Z,6.53
2022-08-28T23:11:27.180Z,4.37
2022-08-28T23:13:55.302Z,7.33
2022-08-28T23:16:24.906Z,6.23
2022-08-28T23:19:09.283Z,8.60
2022-08-28T23:21:40.784Z,8.93
2022-08-28T23:24:12.715Z,8.83
2022-08-28T23:26:41.303Z,4.30
2022-08-28T23:29:09.717Z,4.30
2022-08-28T23:31:40.557Z,4.20
2022-08-28T23:34:08.891Z,7.50
2022-08-28T23:36:39.354Z,3.70
2022-08-28T23:39:11.294Z,4.83
2022-08-28T23:41:39.606Z,5.17
2022-08-28T23:44:09.283Z,4.80
2022-08-28T23:46:41.119Z,6.43
2022-08-28T23:49:10.464Z,4.00
2022-08-28T23:51:38.914Z,3.77
2022-08-28T23:54:07.707Z,4.10
2022-08-28T23:56:36.539Z,6.10
2022-08-28T23:59:04.992Z,5.30
